This is the latest recevied weather packets stored in our database for station/object DJ2RF. If no packets are shown the sender has not sent any weather packets the latest 1 day(s).
| Time | Temp. | Humidity | Pressure | Rain* | Wind** | Luminosity | Snow |
|---|---|---|---|---|---|---|---|
| 1777981094 | 23.33° C | 51% | 1008.4 hPa | 0 mm | 0 m/s | - | - |
| 1777980617 | 23.33° C | 50% | 1008.4 hPa | 0 mm | 0 m/s | - | - |
| 1777980052 | 23.33° C | 51% | 1008.5 hPa | 0 mm | 0 m/s | - | - |
| 1777979562 | 22.78° C | 54% | 1008.7 hPa | 0 mm | 0 m/s | - | - |
| 1777979073 | 22.78° C | 54% | 1008.7 hPa | 0 mm | 0 m/s | - | - |
| 1777978517 | 22.78° C | 54% | 1008.7 hPa | 0 mm | 0 m/s | - | - |
| 1777978027 | 22.22° C | 55% | 1008.8 hPa | 0 mm | 0 m/s | - | - |
| 1777977511 | 21.67° C | 56% | 1009 hPa | 0 mm | 0 m/s | - | - |
| 1777976957 | 21.11° C | 61% | 1009.1 hPa | 0 mm | 0 m/s | - | - |
| 1777976471 | 20.56° C | 59% | 1009.3 hPa | 0 mm | 0 m/s | - | - |
| 1777975877 | 20° C | 61% | 1009.4 hPa | 0 mm | 0 m/s | - | - |
| 1777975371 | 21.11° C | 61% | 1009.4 hPa | 0 mm | 0 m/s | - | - |
| 1777974837 | 20.56° C | 63% | 1009.5 hPa | 0 mm | 0 m/s | - | - |
| 1777974337 | 20.56° C | 63% | 1009.5 hPa | 0 mm | 0 m/s | - | - |
| 1777973746 | 20° C | 65% | 1009.6 hPa | 0 mm | 0 m/s | - | - |
| 1777973240 | 20° C | 64% | 1009.8 hPa | 0 mm | 0 m/s | - | - |
| 1777972665 | 19.44° C | 65% | 1009.8 hPa | 0 mm | 0 m/s | - | - |
| 1777972182 | 19.44° C | 64% | 1009.9 hPa | 0 mm | 0 m/s | - | - |
| 1777971645 | 18.89° C | 68% | 1010 hPa | 0 mm | 0 m/s | - | - |
| 1777971112 | 18.89° C | 70% | 1010 hPa | 0 mm | 0 m/s | - | - |
| 1777970522 | 18.33° C | 71% | 1010.1 hPa | 0 mm | 0 m/s | - | - |
| 1777969968 | 17.78° C | 72% | 1010.3 hPa | 0 mm | 0 m/s | - | - |
| 1777969447 | - | - | - | - | 0 m/s | - | - |
| 1777968943 | 14.44° C | 80% | 1010.7 hPa | 0 mm | 0 m/s | - | - |
| 1777968442 | 14.44° C | 80% | 1010.6 hPa | 0 mm | 0 m/s | - | - |
* Rain latest hour (hover to see other rain measurements)
** Current wind speed in m/s (hover to see current wind gust speed)